Wetterdaten: Freitag, 30.01.2015
Datum Zeit Temp. A. Feuchte A. Luftdruck Regen Wind Richtung Richtung Sonnenschein ET UV Solar Taupunkt Windchill Windben Empfang
30.01.2015 00:00 -1,3 C 73 % 977,1 hPa 0,0 l/m 6,5 km/h (2 Bft) O-SO 108 0 min 0,000 mm 0,0 UV-I 0 W/m -5,5 C -1,4 C 7,9 km/h (2 Bft) 0,00 %
30.01.2015 00:15 -1,2 C 73 % 976,5 hPa 0,0 l/m 3,2 km/h (1 Bft) O 101 0 min 0,000 mm 0,0 UV-I 0 W/m -5,4 C -1,2 C 4,0 km/h (1 Bft) 0,00 %
30.01.2015 00:30 -1,1 C 72 % 975,9 hPa 0,0 l/m 5,8 km/h (2 Bft) SO 128 0 min 0,000 mm 0,0 UV-I 0 W/m -5,5 C -1,1 C 7,9 km/h (2 Bft) 0,00 %
30.01.2015 00:45 -0,9 C 72 % 975,5 hPa 0,0 l/m 0,4 km/h (0 Bft) SO 139 0 min 0,000 mm 0,0 UV-I 0 W/m -5,3 C -0,9 C 4,0 km/h (1 Bft) 0,00 %
30.01.2015 01:00 -0,9 C 72 % 975,4 hPa 0,0 l/m 2,2 km/h (1 Bft) O-SO 103 0 min 0,000 mm 0,0 UV-I 0 W/m -5,3 C -0,9 C 4,0 km/h (1 Bft) 0,00 %
30.01.2015 01:15 -0,7 C 71 % 975,4 hPa 0,0 l/m 0,0 km/h (0 Bft) O 91 0 min 0,000 mm 0,0 UV-I 0 W/m -5,3 C -0,7 C 0,0 km/h (0 Bft) 0,00 %
30.01.2015 01:30 -0,7 C 71 % 974,9 hPa 0,0 l/m 5,8 km/h (2 Bft) O 97 0 min 0,000 mm 0,0 UV-I 0 W/m -5,3 C -0,7 C 7,9 km/h (2 Bft) 0,00 %
30.01.2015 01:45 -0,5 C 70 % 974,6 hPa 0,0 l/m 6,5 km/h (2 Bft) O 88 0 min 0,000 mm 0,0 UV-I 0 W/m -5,3 C -0,6 C 7,9 km/h (2 Bft) 0,00 %
30.01.2015 02:00 -0,5 C 72 % 974,2 hPa 0,0 l/m 0,0 km/h (0 Bft) S 173 0 min 0,000 mm 0,0 UV-I 0 W/m -4,9 C -0,5 C 0,0 km/h (0 Bft) 0,00 %
30.01.2015 02:15 -0,7 C 72 % 973,7 hPa 0,0 l/m 0,0 km/h (0 Bft) S-SO 162 0 min 0,000 mm 0,0 UV-I 0 W/m -5,1 C -0,7 C 0,0 km/h (0 Bft) 0,00 %
30.01.2015 02:30 -0,6 C 72 % 973,2 hPa 0,0 l/m 0,0 km/h (0 Bft) S-SW 193 0 min 0,000 mm 0,0 UV-I 0 W/m -5,0 C -0,6 C 0,0 km/h (0 Bft) 0,00 %
30.01.2015 02:45 -0,8 C 72 % 973,0 hPa 0,0 l/m 0,4 km/h (0 Bft) SO 132 0 min 0,000 mm 0,0 UV-I 0 W/m -5,2 C -0,8 C 4,0 km/h (1 Bft) 0,00 %
30.01.2015 03:00 -0,9 C 72 % 972,6 hPa 0,0 l/m 0,0 km/h (0 Bft) O-SO 123 0 min 0,000 mm 0,0 UV-I 0 W/m -5,3 C -0,9 C 0,0 km/h (0 Bft) 0,00 %
30.01.2015 03:15 -1,2 C 73 % 971,9 hPa 0,0 l/m 0,0 km/h (0 Bft) S 172 0 min 0,000 mm 0,0 UV-I 0 W/m -5,4 C -1,2 C 0,0 km/h (0 Bft) 0,00 %
30.01.2015 03:30 -1,4 C 73 % 971,6 hPa 0,0 l/m 0,0 km/h (0 Bft) O 83 0 min 0,000 mm 0,0 UV-I 0 W/m -5,6 C -1,4 C 0,0 km/h (0 Bft) 0,00 %
30.01.2015 03:45 -1,7 C 76 % 971,5 hPa 0,0 l/m 0,0 km/h (0 Bft) S 190 0 min 0,000 mm 0,0 UV-I 0 W/m -5,4 C -1,7 C 0,0 km/h (0 Bft) 0,00 %
30.01.2015 04:00 -2,2 C 77 % 971,2 hPa 0,0 l/m 0,0 km/h (0 Bft) S-SW 196 0 min 0,000 mm 0,0 UV-I 0 W/m -5,7 C -2,2 C 0,0 km/h (0 Bft) 0,00 %
30.01.2015 04:15 -2,5 C 75 % 971,2 hPa 0,0 l/m 0,0 km/h (0 Bft) S 191 0 min 0,000 mm 0,0 UV-I 0 W/m -6,3 C -2,5 C 0,0 km/h (0 Bft) 0,00 %
30.01.2015 04:30 -2,9 C 75 % 970,6 hPa 0,0 l/m 0,0 km/h (0 Bft) SW 215 0 min 0,000 mm 0,0 UV-I 0 W/m -6,7 C -2,9 C 0,0 km/h (0 Bft) 0,00 %
30.01.2015 04:45 -3,0 C 77 % 970,3 hPa 0,0 l/m 0,0 km/h (0 Bft) SW 223 0 min 0,000 mm 0,0 UV-I 0 W/m -6,4 C -3,0 C 0,0 km/h (0 Bft) 0,00 %
30.01.2015 05:00 -3,0 C 77 % 970,7 hPa 0,0 l/m 0,0 km/h (0 Bft) S 189 0 min 0,000 mm 0,0 UV-I 0 W/m -6,4 C -3,0 C 0,0 km/h (0 Bft) 0,00 %
30.01.2015 05:15 -3,0 C 77 % 970,8 hPa 0,0 l/m 0,0 km/h (0 Bft) S-SW 207 0 min 0,000 mm 0,0 UV-I 0 W/m -6,4 C -3,0 C 0,0 km/h (0 Bft) 0,00 %
30.01.2015 05:30 -2,6 C 82 % 971,1 hPa 0,0 l/m 0,0 km/h (0 Bft) S 185 0 min 0,000 mm 0,0 UV-I 0 W/m -5,2 C -2,6 C 0,0 km/h (0 Bft) 0,00 %
30.01.2015 05:45 -2,4 C 81 % 971,4 hPa 0,0 l/m 0,0 km/h (0 Bft) SW 236 0 min 0,000 mm 0,0 UV-I 0 W/m -5,2 C -2,4 C 0,0 km/h (0 Bft) 0,00 %
30.01.2015 06:00 -2,2 C 80 % 971,9 hPa 0,0 l/m 0,0 km/h (0 Bft) W-NW 291 0 min 0,000 mm 0,0 UV-I 0 W/m -5,2 C -2,2 C 0,0 km/h (0 Bft) 0,00 %
30.01.2015 06:15 -2,0 C 80 % 971,8 hPa 0,0 l/m 0,0 km/h (0 Bft) S-SW 204 0 min 0,000 mm 0,0 UV-I 0 W/m -5,0 C -2,0 C 0,0 km/h (0 Bft) 0,00 %
30.01.2015 06:30 -1,9 C 80 % 972,6 hPa 0,0 l/m 0,0 km/h (0 Bft) SW 234 0 min 0,000 mm 0,0 UV-I 0 W/m -4,9 C -1,9 C 0,0 km/h (0 Bft) 0,00 %
30.01.2015 06:45 -1,6 C 78 % 973,3 hPa 0,0 l/m 0,0 km/h (0 Bft) NW 312 0 min 0,000 mm 0,0 UV-I 0 W/m -4,9 C -1,6 C 0,0 km/h (0 Bft) 0,00 %
30.01.2015 07:00 -1,0 C 76 % 974,3 hPa 0,0 l/m 0,0 km/h (0 Bft) W-NW 301 0 min 0,000 mm 0,0 UV-I 0 W/m -4,7 C -1,0 C 0,0 km/h (0 Bft) 0,00 %
30.01.2015 07:15 -0,9 C 76 % 974,4 hPa 0,0 l/m 1,8 km/h (1 Bft) S-SW 200 0 min 0,000 mm 0,0 UV-I 0 W/m -4,6 C -0,9 C 4,0 km/h (1 Bft) 0,00 %
30.01.2015 07:30 -0,5 C 73 % 974,6 hPa 0,0 l/m 0,0 km/h (0 Bft) S-SW 198 0 min 0,000 mm 0,0 UV-I 0 W/m -4,7 C -0,5 C 0,0 km/h (0 Bft) 0,00 %
30.01.2015 07:45 -0,4 C 73 % 974,8 hPa 0,0 l/m 0,0 km/h (0 Bft) S-SW 212 0 min 0,000 mm 0,0 UV-I 0 W/m -4,6 C -0,4 C 0,0 km/h (0 Bft) 0,00 %
30.01.2015 08:00 -0,4 C 76 % 974,9 hPa 0,0 l/m 0,0 km/h (0 Bft) S 184 0 min 0,000 mm 0,0 UV-I 0 W/m -4,1 C -0,4 C 0,0 km/h (0 Bft) 0,00 %
30.01.2015 08:15 -0,1 C 79 % 974,9 hPa 0,0 l/m 0,0 km/h (0 Bft) NW 310 0 min 0,000 mm 0,0 UV-I 1 W/m -3,3 C -0,1 C 0,0 km/h (0 Bft) 0,00 %
30.01.2015 08:30 0,5 C 76 % 974,8 hPa 0,0 l/m 0,0 km/h (0 Bft) W-SW 256 0 min 0,000 mm 0,0 UV-I 9 W/m -3,2 C 0,5 C 0,0 km/h (0 Bft) 0,00 %
30.01.2015 08:45 0,8 C 76 % 974,7 hPa 0,0 l/m 0,0 km/h (0 Bft) W-SW 250 0 min 0,000 mm 0,0 UV-I 18 W/m -2,9 C 0,8 C 0,0 km/h (0 Bft) 0,00 %
30.01.2015 09:00 0,9 C 75 % 974,5 hPa 0,0 l/m 0,4 km/h (0 Bft) S 180 0 min 0,000 mm 0,0 UV-I 27 W/m -3,0 C 0,9 C 4,0 km/h (1 Bft) 0,00 %
30.01.2015 09:15 1,2 C 73 % 974,6 hPa 0,0 l/m 3,2 km/h (1 Bft) SW 235 0 min 0,000 mm 1,0 UV-I 31 W/m -3,1 C 1,2 C 7,9 km/h (2 Bft) 0,00 %
30.01.2015 09:30 1,4 C 71 % 974,7 hPa 0,0 l/m 2,2 km/h (1 Bft) W 278 0 min 0,000 mm 0,0 UV-I 41 W/m -3,3 C 1,4 C 4,0 km/h (1 Bft) 0,00 %
30.01.2015 09:45 1,5 C 69 % 974,7 hPa 0,0 l/m 8,3 km/h (2 Bft) W-SW 252 0 min 0,000 mm 1,0 UV-I 40 W/m -3,6 C -0,3 C 15,8 km/h (3 Bft) 0,00 %
30.01.2015 10:00 1,9 C 66 % 975,2 hPa 0,0 l/m 0,7 km/h (0 Bft) O 80 0 min 0,000 mm 1,0 UV-I 45 W/m -3,8 C 1,9 C 4,0 km/h (1 Bft) 0,00 %
30.01.2015 10:15 2,0 C 64 % 975,7 hPa 0,0 l/m 4,3 km/h (1 Bft) N 356 0 min 0,000 mm 1,0 UV-I 40 W/m -4,1 C 2,0 C 7,9 km/h (2 Bft) 0,00 %
30.01.2015 10:30 2,1 C 63 % 975,7 hPa 0,0 l/m 13,0 km/h (3 Bft) S 169 0 min 0,000 mm 1,0 UV-I 82 W/m -4,2 C -3,2 C 19,8 km/h (3 Bft) 0,00 %
30.01.2015 10:45 2,2 C 60 % 976,1 hPa 0,0 l/m 3,2 km/h (1 Bft) W-SW 253 0 min 0,000 mm 1,0 UV-I 97 W/m -4,7 C 2,2 C 7,9 km/h (2 Bft) 0,00 %
30.01.2015 11:00 1,8 C 62 % 976,0 hPa 0,0 l/m 11,5 km/h (2 Bft) W-SW 256 0 min 0,000 mm 1,0 UV-I 106 W/m -4,7 C -2,6 C 11,9 km/h (2 Bft) 0,00 %
30.01.2015 11:15 1,7 C 65 % 976,0 hPa 0,3 l/m 1,4 km/h (1 Bft) N 349 0 min 0,000 mm 1,0 UV-I 111 W/m -4,2 C 1,7 C 4,0 km/h (1 Bft) 0,00 %
30.01.2015 11:30 1,6 C 65 % 976,3 hPa 0,0 l/m 0,0 km/h (0 Bft) S 174 0 min 0,000 mm 1,0 UV-I 117 W/m -4,3 C 1,6 C 0,0 km/h (0 Bft) 0,00 %
30.01.2015 11:45 1,6 C 67 % 976,3 hPa 0,0 l/m 3,2 km/h (1 Bft) W-SW 256 0 min 0,000 mm 1,0 UV-I 126 W/m -3,9 C 1,6 C 7,9 km/h (2 Bft) 0,00 %
30.01.2015 12:00 0,9 C 72 % 976,6 hPa 0,0 l/m 1,4 km/h (1 Bft) N-NO 28 0 min 0,000 mm 1,0 UV-I 77 W/m -3,6 C 0,9 C 4,0 km/h (1 Bft) 0,00 %
30.01.2015 12:15 0,5 C 72 % 976,9 hPa 0,0 l/m 2,2 km/h (1 Bft) S 181 0 min 0,000 mm 1,0 UV-I 83 W/m -3,9 C 0,5 C 4,0 km/h (1 Bft) 0,00 %
30.01.2015 12:30 -0,1 C 69 % 976,9 hPa 0,0 l/m 3,2 km/h (1 Bft) W-SW 255 0 min 0,000 mm 2,0 UV-I 113 W/m -5,1 C -0,1 C 4,0 km/h (1 Bft) 0,00 %
30.01.2015 12:45 0,8 C 60 % 976,8 hPa 0,0 l/m 2,9 km/h (1 Bft) N 355 0 min 0,000 mm 2,0 UV-I 162 W/m -6,1 C 0,8 C 4,0 km/h (1 Bft) 0,00 %
30.01.2015 13:00 0,9 C 58 % 976,8 hPa 0,0 l/m 15,5 km/h (3 Bft) W-SW 251 0 min 0,000 mm 1,0 UV-I 147 W/m -6,4 C -6,2 C 19,8 km/h (3 Bft) 0,00 %
30.01.2015 13:15 0,8 C 59 % 976,7 hPa 0,0 l/m 3,2 km/h (1 Bft) W-SW 255 0 min 0,000 mm 1,0 UV-I 133 W/m -6,3 C 0,8 C 7,9 km/h (2 Bft) 0,00 %
30.01.2015 13:30 0,8 C 59 % 976,7 hPa 0,0 l/m 9,4 km/h (2 Bft) W-NW 290 0 min 0,000 mm 1,0 UV-I 120 W/m -6,3 C -2,1 C 11,9 km/h (2 Bft) 0,00 %
30.01.2015 13:45 0,7 C 56 % 976,8 hPa 0,0 l/m 13,0 km/h (3 Bft) W-SW 254 0 min 0,000 mm 1,0 UV-I 108 W/m -7,1 C -4,9 C 15,8 km/h (3 Bft) 0,00 %
30.01.2015 14:00 0,6 C 56 % 976,7 hPa 0,0 l/m 3,2 km/h (1 Bft) W-SW 256 0 min 0,000 mm 1,0 UV-I 92 W/m -7,1 C 0,6 C 7,9 km/h (2 Bft) 0,00 %
30.01.2015 14:15 0,7 C 57 % 976,7 hPa 0,0 l/m 1,4 km/h (1 Bft) W-SW 250 0 min 0,000 mm 1,0 UV-I 117 W/m -6,8 C 0,7 C 4,0 km/h (1 Bft) 0,00 %
30.01.2015 14:30 0,6 C 55 % 976,9 hPa 0,0 l/m 2,9 km/h (1 Bft) W-SW 250 0 min 0,000 mm 1,0 UV-I 111 W/m -7,4 C 0,6 C 7,9 km/h (2 Bft) 0,00 %
30.01.2015 14:45 0,5 C 54 % 977,1 hPa 0,0 l/m 0,4 km/h (0 Bft) NW 326 0 min 0,000 mm 1,0 UV-I 101 W/m -7,7 C 0,5 C 4,0 km/h (1 Bft) 0,00 %
30.01.2015 15:00 0,5 C 56 % 977,1 hPa 0,0 l/m 5,4 km/h (1 Bft) W-SW 251 0 min 0,000 mm 1,0 UV-I 82 W/m -7,2 C 0,5 C 7,9 km/h (2 Bft) 0,00 %
30.01.2015 15:15 0,4 C 59 % 977,3 hPa 0,0 l/m 0,0 km/h (0 Bft) N 349 0 min 0,000 mm 1,0 UV-I 65 W/m -6,7 C 0,4 C 0,0 km/h (0 Bft) 0,00 %
30.01.2015 15:30 0,2 C 59 % 977,3 hPa 0,0 l/m 7,2 km/h (2 Bft) W-SW 256 0 min 0,000 mm 1,0 UV-I 63 W/m -6,8 C -0,6 C 11,9 km/h (2 Bft) 0,00 %
30.01.2015 15:45 0,1 C 60 % 977,2 hPa 0,0 l/m 0,7 km/h (0 Bft) SW 231 0 min 0,000 mm 1,0 UV-I 40 W/m -6,7 C 0,1 C 4,0 km/h (1 Bft) 0,00 %
30.01.2015 16:00 0,0 C 60 % 977,0 hPa 0,0 l/m 6,5 km/h (2 Bft) W-SW 242 0 min 0,000 mm 0,0 UV-I 40 W/m -6,8 C -0,1 C 11,9 km/h (2 Bft) 0,00 %
30.01.2015 16:15 -0,2 C 60 % 977,1 hPa 0,0 l/m 0,0 km/h (0 Bft) S 176 0 min 0,000 mm 0,0 UV-I 22 W/m -7,0 C -0,2 C 0,0 km/h (0 Bft) 0,00 %
30.01.2015 16:30 -0,3 C 61 % 976,7 hPa 0,0 l/m 0,7 km/h (0 Bft) W-SW 246 0 min 0,000 mm 0,0 UV-I 10 W/m -6,9 C -0,3 C 4,0 km/h (1 Bft) 0,00 %
30.01.2015 16:45 -0,5 C 61 % 976,4 hPa 0,0 l/m 0,7 km/h (0 Bft) S 174 0 min 0,000 mm 0,0 UV-I 2 W/m -7,1 C -0,5 C 4,0 km/h (1 Bft) 0,00 %
30.01.2015 17:00 -0,6 C 63 % 976,5 hPa 0,0 l/m 0,4 km/h (0 Bft) N-NW 329 0 min 0,000 mm 0,0 UV-I 0 W/m -6,8 C -0,6 C 4,0 km/h (1 Bft) 0,00 %
30.01.2015 17:15 -0,7 C 63 % 976,1 hPa 0,0 l/m 0,7 km/h (0 Bft) NW 319 0 min 0,000 mm 0,0 UV-I 0 W/m -6,8 C -0,7 C 4,0 km/h (1 Bft) 0,00 %
30.01.2015 17:30 -0,9 C 63 % 976,4 hPa 0,0 l/m 0,4 km/h (0 Bft) W-SW 253 0 min 0,000 mm 0,0 UV-I 0 W/m -7,0 C -0,9 C 4,0 km/h (1 Bft) 0,00 %
30.01.2015 17:45 -0,9 C 63 % 976,4 hPa 0,0 l/m 0,0 km/h (0 Bft) NO 36 0 min 0,000 mm 0,0 UV-I 0 W/m -7,0 C -0,9 C 0,0 km/h (0 Bft) 0,00 %
30.01.2015 18:00 -1,0 C 63 % 976,4 hPa 0,0 l/m 3,2 km/h (1 Bft) W-SW 238 0 min 0,000 mm 0,0 UV-I 0 W/m -7,1 C -1,0 C 4,0 km/h (1 Bft) 0,00 %
30.01.2015 18:15 -1,3 C 63 % 976,7 hPa 0,0 l/m 0,0 km/h (0 Bft) W-NW 294 0 min 0,000 mm 0,0 UV-I 0 W/m -7,4 C -1,3 C 0,0 km/h (0 Bft) 0,00 %
30.01.2015 18:30 -1,3 C 62 % 976,5 hPa 0,0 l/m 0,0 km/h (0 Bft) NW 321 0 min 0,000 mm 0,0 UV-I 0 W/m -7,6 C -1,3 C 0,0 km/h (0 Bft) 0,00 %
30.01.2015 18:45 -1,4 C 62 % 976,5 hPa 0,0 l/m 0,0 km/h (0 Bft) SO 145 0 min 0,000 mm 0,0 UV-I 0 W/m -7,7 C -1,4 C 0,0 km/h (0 Bft) 0,00 %
30.01.2015 19:00 -1,6 C 64 % 976,6 hPa 0,0 l/m 0,0 km/h (0 Bft) S-SW 208 0 min 0,000 mm 0,0 UV-I 0 W/m -7,5 C -1,6 C 0,0 km/h (0 Bft) 0,00 %
30.01.2015 19:15 -1,9 C 64 % 976,5 hPa 0,0 l/m 0,0 km/h (0 Bft) W-SW 255 0 min 0,000 mm 0,0 UV-I 0 W/m -7,8 C -1,9 C 0,0 km/h (0 Bft) 0,00 %
30.01.2015 19:30 -1,9 C 65 % 976,6 hPa 0,0 l/m 0,0 km/h (0 Bft) S-SW 205 0 min 0,000 mm 0,0 UV-I 0 W/m -7,6 C -1,9 C 0,0 km/h (0 Bft) 0,00 %
30.01.2015 19:45 -2,0 C 65 % 976,5 hPa 0,0 l/m 0,0 km/h (0 Bft) S 173 0 min 0,000 mm 0,0 UV-I 0 W/m -7,7 C -2,0 C 0,0 km/h (0 Bft) 0,00 %
30.01.2015 20:00 -2,3 C 66 % 976,5 hPa 0,0 l/m 0,0 km/h (0 Bft) S-SW 200 0 min 0,000 mm 0,0 UV-I 0 W/m -7,8 C -2,3 C 0,0 km/h (0 Bft) 0,00 %
30.01.2015 20:15 -2,6 C 63 % 976,5 hPa 0,0 l/m 0,0 km/h (0 Bft) S-SW 196 0 min 0,000 mm 0,0 UV-I 0 W/m -8,6 C -2,6 C 0,0 km/h (0 Bft) 0,00 %
30.01.2015 20:30 -2,6 C 63 % 976,5 hPa 0,0 l/m 0,0 km/h (0 Bft) S 179 0 min 0,000 mm 0,0 UV-I 0 W/m -8,6 C -2,6 C 0,0 km/h (0 Bft) 0,00 %
30.01.2015 20:45 -2,6 C 63 % 976,3 hPa 0,0 l/m 0,0 km/h (0 Bft) S-SW 210 0 min 0,000 mm 0,0 UV-I 0 W/m -8,6 C -2,6 C 0,0 km/h (0 Bft) 0,00 %
30.01.2015 21:00 -2,6 C 63 % 976,5 hPa 0,0 l/m 0,0 km/h (0 Bft) SW 232 0 min 0,000 mm 0,0 UV-I 0 W/m -8,6 C -2,6 C 0,0 km/h (0 Bft) 0,00 %
30.01.2015 21:15 -2,7 C 62 % 976,4 hPa 0,0 l/m 0,0 km/h (0 Bft) S-SW 194 0 min 0,000 mm 0,0 UV-I 0 W/m -8,9 C -2,7 C 0,0 km/h (0 Bft) 0,00 %
30.01.2015 21:30 -2,8 C 63 % 976,5 hPa 0,0 l/m 0,0 km/h (0 Bft) S-SO 147 0 min 0,000 mm 0,0 UV-I 0 W/m -8,8 C -2,8 C 0,0 km/h (0 Bft) 0,00 %
30.01.2015 21:45 -2,8 C 63 % 976,4 hPa 0,0 l/m 0,0 km/h (0 Bft) SW 224 0 min 0,000 mm 0,0 UV-I 0 W/m -8,8 C -2,8 C 0,0 km/h (0 Bft) 0,00 %
30.01.2015 22:00 -2,4 C 66 % 976,2 hPa 0,0 l/m 0,0 km/h (0 Bft) SW 233 0 min 0,000 mm 0,0 UV-I 0 W/m -7,9 C -2,4 C 0,0 km/h (0 Bft) 0,00 %
30.01.2015 22:15 -2,4 C 66 % 976,4 hPa 0,0 l/m 0,0 km/h (0 Bft) W-SW 253 0 min 0,000 mm 0,0 UV-I 0 W/m -7,9 C -2,4 C 0,0 km/h (0 Bft) 0,00 %
30.01.2015 22:30 -2,2 C 66 % 976,4 hPa 0,0 l/m 0,0 km/h (0 Bft) W-SW 256 0 min 0,000 mm 0,0 UV-I 0 W/m -7,7 C -2,2 C 0,0 km/h (0 Bft) 0,00 %
30.01.2015 22:45 -1,9 C 66 % 976,5 hPa 0,0 l/m 0,0 km/h (0 Bft) S 182 0 min 0,000 mm 0,0 UV-I 0 W/m -7,4 C -1,9 C 0,0 km/h (0 Bft) 0,00 %
30.01.2015 23:00 -1,9 C 66 % 976,4 hPa 0,0 l/m 0,4 km/h (0 Bft) W-SW 253 0 min 0,000 mm 0,0 UV-I 0 W/m -7,4 C -1,9 C 4,0 km/h (1 Bft) 0,00 %
30.01.2015 23:15 -2,1 C 68 % 976,2 hPa 0,0 l/m 0,0 km/h (0 Bft) S-SW 199 0 min 0,000 mm 0,0 UV-I 0 W/m -7,2 C -2,1 C 0,0 km/h (0 Bft) 0,00 %
30.01.2015 23:30 -2,1 C 68 % 976,8 hPa 0,0 l/m 0,0 km/h (0 Bft) S-SW 198 0 min 0,000 mm 0,0 UV-I 0 W/m -7,2 C -2,1 C 0,0 km/h (0 Bft) 0,00 %
30.01.2015 23:45 -2,1 C 67 % 976,6 hPa 0,0 l/m 0,4 km/h (0 Bft) W-SW 250 0 min 0,000 mm 0,0 UV-I 0 W/m -7,4 C -2,1 C 4,0 km/h (1 Bft) 0,00 %
_ Min-Zeit 04:45 14:45 04:45 - 01:15 - - - - - - 21:15 13:00 01:15 00:00
Minimum _ -3,0 C 54 % 970,3 hPa - 0,0 km/h (0 Bft) - - - - - - -8,9 C -6,2 C 0,0 km/h (0 Bft) 0,00 %
_ Max-Zeit 10:45 05:30 15:15 11:15 13:00 - - 00:00 00:00 12:30 12:45 08:45 10:45 10:30 00:00
Maximum _ 2,2 C 82 % 977,3 hPa 0,3 l/m 15,5 km/h
W-SW (3 Bft)
- - 0 min 0,000 mm 2,0 UV-I 162 W/m -2,9 C 2,2 C 19,8 km/h
S (3 Bft)
0,00 %
Durchschnitt _ -0,7 C 68 % 975,2 hPa #0,3 l/m 1,7 km/h (1 Bft) W-SW - #0 min. #0,000 mm 1,1 UV-I 74 W/m -6,0 C -1,0 C 3,2 km/h (1 Bft) 0,00 %